Time;durP1;ratioP1;P1;durP2;ratioP2;P2;SDS_P1;SDS_P2;PMS_P1;PMS_P2;Temp;Humidity;BMP_temperature;BMP_pressure;BME280_temperature;BME280_humidity;BME280_pressure;Samples;Min_cycle;Max_cycle;Signal;HPM_P1;HPM_P2
2022/05/16 00:02:09;;;;;;;;;10.00;9.75;;;;;23.77;59.02;101701.41;6121018;23;48343;-91
2022/05/16 00:04:36;;;;;;;;;9.80;9.80;;;;;23.67;59.25;101696.97;6096327;23;45389;-92
2022/05/16 00:07:01;;;;;;;;;9.20;9.20;;;;;23.82;58.94;101715.28;6128871;23;45257;-91
2022/05/16 00:09:27;;;;;;;;;10.50;8.25;;;;;23.97;58.94;101744.41;6096524;23;45584;-91
2022/05/16 00:11:52;;;;;;;;;11.75;11.25;;;;;23.79;58.89;101727.31;6096277;23;45342;-91
2022/05/16 00:14:18;;;;;;;;;9.50;8.75;;;;;24.02;59.55;101756.44;6095383;23;45307;-91
2022/05/16 00:16:43;;;;;;;;;10.25;9.00;;;;;23.31;59.38;101653.91;6096100;23;45194;-92
2022/05/16 00:19:09;;;;;;;;;11.50;11.50;;;;;24.25;59.25;101791.00;6120199;23;45278;-91
2022/05/16 00:21:35;;;;;;;;;11.00;9.50;;;;;23.77;59.41;101712.22;6096370;23;47175;-91
2022/05/16 00:24:00;;;;;;;;;10.50;10.00;;;;;23.59;59.54;101678.88;6096862;23;45540;-92
2022/05/16 00:26:25;;;;;;;;;10.75;10.00;;;;;23.33;59.75;101641.91;6120599;23;45262;-92
2022/05/16 00:28:51;;;;;;;;;8.50;8.50;;;;;23.64;59.45;101691.91;6096953;23;45441;-93
2022/05/16 00:31:16;;;;;;;;;10.00;9.00;;;;;23.79;59.61;101710.19;6096276;23;48286;-91
2022/05/16 00:33:42;;;;;;;;;12.25;8.50;;;;;23.45;60.16;101660.53;6096688;23;45412;-91
2022/05/16 00:36:07;;;;;;;;;10.50;9.00;;;;;24.12;59.57;101764.44;6095686;23;45541;-93
2022/05/16 00:38:33;;;;;;;;;11.00;11.00;;;;;23.48;59.10;101679.16;6120305;23;45669;-91
2022/05/16 00:40:59;;;;;;;;;13.00;11.50;;;;;23.49;59.24;101684.38;6094121;23;46963;-91
2022/05/16 00:43:44;;;;;;;;;15.25;11.75;;;;;23.53;58.78;101690.38;6120913;23;45429;-90
2022/05/16 00:46:10;;;;;;;;;11.20;10.00;;;;;24.18;59.13;101805.41;6121152;23;45396;-91
2022/05/16 00:48:36;;;;;;;;;12.00;10.40;;;;;23.52;59.11;101710.34;6094702;23;45465;-91
2022/05/16 00:51:01;;;;;;;;;8.50;8.25;;;;;23.77;59.13;101756.44;6095114;23;45875;-91
2022/05/16 00:53:27;;;;;;;;;14.25;10.00;;;;;23.76;59.36;101748.44;6119949;23;45294;-92
2022/05/16 00:55:52;;;;;;;;;12.00;11.25;;;;;23.68;59.32;101736.59;6071103;23;45277;-92
2022/05/16 00:58:19;;;;;;;;;8.00;8.00;;;;;24.14;59.65;101810.31;6096303;23;45327;-91
2022/05/16 01:00:45;;;;;;;;;12.80;11.00;;;;;23.26;59.59;101666.06;6096079;23;47928;-91
2022/05/16 01:05:57;;;;;;;;;7.60;7.00;;;;;23.89;59.22;101785.91;6121080;23;45466;-91
2022/05/16 01:08:24;;;;;;;;;10.50;10.50;;;;;23.76;59.04;101770.13;6149079;23;45454;-92
2022/05/16 01:10:50;;;;;;;;;11.40;11.40;;;;;23.42;58.92;101705.03;6150049;23;47373;-92
2022/05/16 01:13:16;;;;;;;;;9.20;9.20;;;;;23.61;59.55;101732.84;6125839;23;45258;-91
2022/05/16 01:15:43;;;;;;;;;12.00;11.75;;;;;23.81;59.99;101767.78;6124943;23;45299;-92
2022/05/16 01:18:10;;;;;;;;;9.80;9.60;;;;;23.75;59.55;101757.63;6101568;23;45543;-92
2022/05/16 01:20:36;;;;;;;;;12.40;11.80;;;;;23.93;59.60;101766.44;6150413;23;45511;-91
2022/05/16 01:23:02;;;;;;;;;14.00;11.25;;;;;23.20;59.33;101646.97;6155230;23;45506;-91
2022/05/16 01:25:28;;;;;;;;;11.00;9.75;;;;;23.93;59.63;101755.59;6148449;23;45130;-92
2022/05/16 01:27:59;;;;;;;;;11.00;10.20;;;;;23.36;59.41;101667.78;6180887;23;44720;-91
2022/05/16 01:30:31;;;;;;;;;12.60;11.60;;;;;24.05;59.33;101769.66;6179353;23;46605;-92
2022/05/16 01:32:56;;;;;;;;;12.60;10.00;;;;;24.05;59.59;101771.53;6127327;23;45393;-92
2022/05/16 01:35:25;;;;;;;;;10.50;9.00;;;;;24.04;59.32;101756.25;6124878;23;45365;-91
2022/05/16 01:40:34;;;;;;;;;13.00;11.00;;;;;23.48;59.50;101661.06;6129724;23;45639;-91
2022/05/16 01:43:00;;;;;;;;;12.50;9.75;;;;;24.02;59.51;101747.47;6125890;23;45286;-91
2022/05/16 01:45:25;;;;;;;;;13.00;11.75;;;;;23.45;59.64;101661.38;6124953;23;45652;-92
2022/05/16 01:47:51;;;;;;;;;14.00;12.50;;;;;23.50;59.48;101677.97;6125714;23;45246;-91
2022/05/16 01:50:16;;;;;;;;;10.00;10.00;;;;;23.52;59.43;101698.66;6125440;23;45581;-92
2022/05/16 01:52:42;;;;;;;;;10.50;10.50;;;;;23.60;59.56;101706.81;6125503;23;45492;-91
2022/05/16 01:55:08;;;;;;;;;10.50;10.50;;;;;23.39;59.74;101668.31;6126592;23;45302;-92
2022/05/16 01:57:33;;;;;;;;;12.40;10.60;;;;;23.64;59.50;101713.56;6150888;23;45553;-92
2022/05/16 01:59:59;;;;;;;;;12.00;10.50;;;;;23.70;59.45;101729.16;6126112;23;48282;-91
2022/05/16 02:02:24;;;;;;;;;9.50;9.00;;;;;23.34;59.70;101677.94;6125587;23;45395;-91
2022/05/16 02:04:50;;;;;;;;;12.00;11.25;;;;;23.50;59.50;101698.78;6136080;23;45332;-91
2022/05/16 02:07:15;;;;;;;;;12.50;11.25;;;;;23.32;59.32;101683.50;6146544;23;45205;-91
2022/05/16 02:09:41;;;;;;;;;11.00;10.00;;;;;23.06;59.25;101642.00;6144821;23;46394;-91
2022/05/16 02:12:07;;;;;;;;;12.50;11.50;;;;;23.47;59.78;101721.63;6152476;23;45210;-92
2022/05/16 02:14:32;;;;;;;;;12.25;11.00;;;;;23.43;59.72;101701.31;6150242;23;45243;-92
2022/05/16 02:16:58;;;;;;;;;13.00;12.00;;;;;23.37;59.56;101710.97;6100133;23;45234;-91
2022/05/16 02:19:23;;;;;;;;;10.25;9.25;;;;;23.33;59.37;101695.19;6124135;23;47956;-92
2022/05/16 02:24:39;;;;;;;;;10.80;10.80;;;;;23.22;59.57;101688.22;6150287;23;45367;-92
2022/05/16 02:27:08;;;;;;;;;12.40;10.80;;;;;23.24;59.52;101689.75;6128036;23;45505;-91
2022/05/16 02:29:34;;;;;;;;;12.60;12.60;;;;;23.39;59.20;101705.38;6149798;23;47594;-92
2022/05/16 02:32:01;;;;;;;;;16.40;15.00;;;;;23.76;59.67;101768.28;6149339;23;45388;-91
2022/05/16 02:34:26;;;;;;;;;12.80;12.40;;;;;23.54;59.79;101737.25;6151545;23;45447;-91
2022/05/16 02:36:52;;;;;;;;;13.50;12.75;;;;;23.27;59.92;101702.97;6100563;23;45420;-91
2022/05/16 02:39:18;;;;;;;;;15.00;11.80;;;;;23.31;59.85;101699.94;6124788;23;47004;-92
2022/05/16 02:41:43;;;;;;;;;14.25;14.25;;;;;23.46;59.92;101717.25;6124436;23;45411;-91
2022/05/16 02:44:09;;;;;;;;;18.75;14.75;;;;;23.01;59.67;101649.78;6125447;23;45316;-92
2022/05/16 02:46:34;;;;;;;;;17.00;16.00;;;;;23.62;59.82;101731.84;6123789;23;45515;-92
2022/05/16 02:49:00;;;;;;;;;16.50;15.50;;;;;23.18;59.96;101656.09;6124948;23;47197;-92
2022/05/16 02:51:26;;;;;;;;;17.75;17.50;;;;;23.56;59.63;101724.38;6127315;23;45361;-93
2022/05/16 02:53:52;;;;;;;;;17.80;15.80;;;;;23.23;59.64;101679.97;6128137;23;45236;-91
2022/05/16 02:56:17;;;;;;;;;17.75;16.75;;;;;23.22;60.05;101672.84;6125806;23;45309;-92
2022/05/16 02:58:43;;;;;;;;;14.25;14.25;;;;;23.60;60.18;101745.56;6124862;23;46912;-92
2022/05/16 03:01:12;;;;;;;;;15.00;14.25;;;;;23.44;59.94;101719.25;6150150;23;45354;-92
2022/05/16 03:03:39;;;;;;;;;18.60;16.20;;;;;23.03;59.80;101666.72;6125290;23;45400;-92
2022/05/16 03:06:05;;;;;;;;;13.40;12.60;;;;;23.10;59.49;101668.75;6151305;23;45372;-92
2022/05/16 03:08:30;;;;;;;;;16.50;14.50;;;;;23.55;59.80;101749.78;6154766;23;47117;-92
2022/05/16 03:10:57;;;;;;;;;12.50;11.50;;;;;23.75;59.18;101779.28;6131082;23;45470;-92
2022/05/16 03:13:23;;;;;;;;;14.20;12.00;;;;;23.29;59.43;101710.94;6130406;23;45248;-92
2022/05/16 03:15:49;;;;;;;;;15.00;13.40;;;;;23.32;59.33;101715.16;6136908;23;45181;-92
2022/05/16 03:18:15;;;;;;;;;15.25;13.75;;;;;23.09;58.98;101694.13;6145896;23;46804;-93
2022/05/16 03:20:40;;;;;;;;;10.25;9.25;;;;;22.99;58.94;101662.63;6160055;22;45140;-91
2022/05/16 03:23:05;;;;;;;;;12.00;12.00;;;;;23.18;59.22;101706.66;6159780;22;44685;-92
2022/05/16 03:25:31;;;;;;;;;12.75;12.75;;;;;22.88;59.17;101657.50;6161276;22;44672;-94
2022/05/16 03:27:56;;;;;;;;;11.75;9.25;;;;;23.25;59.30;101723.94;6135419;23;46956;-92
2022/05/16 03:30:22;;;;;;;;;10.00;9.50;;;;;23.43;58.87;101766.31;6130852;23;45406;-92
2022/05/16 03:32:47;;;;;;;;;10.00;10.00;;;;;23.12;59.04;101715.44;6130818;23;45506;-92
2022/05/16 03:35:13;;;;;;;;;10.00;8.25;;;;;23.04;59.20;101703.56;6156277;23;45424;-92
2022/05/16 03:37:38;;;;;;;;;12.25;9.25;;;;;23.67;58.67;101821.56;6156055;23;45679;-91
2022/05/16 03:42:49;;;;;;;;;12.80;11.60;;;;;23.21;59.15;101752.34;6160418;23;45414;-92
2022/05/16 03:45:14;;;;;;;;;9.75;9.75;;;;;23.08;58.90;101735.72;6130723;23;45394;-92
2022/05/16 03:47:40;;;;;;;;;10.00;8.75;;;;;22.99;58.86;101716.75;6130231;23;47803;-92
2022/05/16 03:50:05;;;;;;;;;13.00;11.00;;;;;23.17;58.89;101742.88;6130897;23;45502;-91
2022/05/16 03:52:31;;;;;;;;;9.75;9.00;;;;;23.23;59.13;101755.75;6156169;23;45264;-92
2022/05/16 03:54:57;;;;;;;;;11.00;11.00;;;;;22.96;59.01;101722.47;6130619;23;45254;-92
2022/05/16 03:57:22;;;;;;;;;9.00;9.00;;;;;23.17;58.89;101750.97;6131479;23;45276;-92
2022/05/16 03:59:48;;;;;;;;;9.00;8.00;;;;;22.94;59.05;101713.69;6130087;23;45453;-92
2022/05/16 04:02:13;;;;;;;;;8.25;8.25;;;;;22.81;59.10;101684.34;6155132;23;45390;-91
2022/05/16 04:04:39;;;;;;;;;11.75;9.00;;;;;22.92;59.10;101704.88;6130621;23;45256;-91
2022/05/16 04:07:04;;;;;;;;;9.50;9.50;;;;;22.90;59.02;101706.88;6130396;23;47100;-90
2022/05/16 04:09:30;;;;;;;;;10.00;8.75;;;;;22.91;58.79;101709.44;6130523;23;45519;-92
2022/05/16 04:11:56;;;;;;;;;8.80;8.60;;;;;22.72;59.06;101675.34;6130845;23;45235;-92
2022/05/16 04:14:21;;;;;;;;;10.25;8.25;;;;;22.87;58.76;101699.09;6154914;23;45531;-91
2022/05/16 04:16:47;;;;;;;;;11.25;11.25;;;;;23.27;58.81;101773.34;6130901;23;48358;-91
2022/05/16 04:19:12;;;;;;;;;10.25;9.00;;;;;22.94;58.90;101724.50;6155717;23;45827;-92
2022/05/16 04:21:38;;;;;;;;;11.00;10.25;;;;;23.14;58.72;101757.56;6131507;23;45374;-91
2022/05/16 04:24:05;;;;;;;;;12.75;9.25;;;;;22.85;59.13;101715.50;6130678;23;45464;-91
2022/05/16 04:26:30;;;;;;;;;12.20;10.80;;;;;22.95;58.95;101740.56;6156017;23;47884;-92
2022/05/16 04:28:57;;;;;;;;;10.75;10.75;;;;;22.68;58.84;101706.41;6130531;23;45754;-92
2022/05/16 04:31:23;;;;;;;;;8.40;8.20;;;;;22.87;58.82;101734.25;6131265;23;45339;-92
2022/05/16 04:33:48;;;;;;;;;12.75;8.75;;;;;22.51;59.13;101673.88;6130040;23;45600;-92
2022/05/16 04:36:14;;;;;;;;;7.75;7.75;;;;;22.76;59.02;101730.81;6155552;23;46483;-92
2022/05/16 04:38:39;;;;;;;;;10.25;10.00;;;;;22.89;58.47;101753.91;6129312;23;45300;-92
2022/05/16 04:43:50;;;;;;;;;7.20;7.20;;;;;23.20;58.50;101795.81;6158526;23;45414;-92
2022/05/16 04:46:15;;;;;;;;;8.25;7.50;;;;;23.19;58.30;101803.09;6134589;23;46312;-92
2022/05/16 04:48:41;;;;;;;;;7.25;7.00;;;;;22.88;58.87;101763.00;6156509;23;45477;-91
2022/05/16 04:51:06;;;;;;;;;9.00;9.00;;;;;23.02;58.74;101781.34;6130161;23;45637;-91
2022/05/16 04:53:32;;;;;;;;;9.50;8.50;;;;;22.75;58.61;101731.00;6130450;23;45477;-90
2022/05/16 04:55:58;;;;;;;;;9.50;8.25;;;;;22.83;58.74;101752.69;6128351;23;47724;-89
2022/05/16 04:58:23;;;;;;;;;9.20;8.80;;;;;23.13;58.44;101814.53;6129730;23;45482;-90
2022/05/16 05:00:49;;;;;;;;;9.50;9.50;;;;;22.69;58.25;101751.38;6129227;23;45344;-90
2022/05/16 05:03:14;;;;;;;;;7.00;5.50;;;;;22.56;58.58;101732.88;6127735;23;45375;-90
2022/05/16 05:05:40;;;;;;;;;11.00;8.50;;;;;22.69;58.21;101748.69;6129681;23;45386;-92
2022/05/16 05:08:05;;;;;;;;;11.75;9.50;;;;;22.46;58.46;101711.38;6129987;23;45353;-90
2022/05/16 05:16:10;;;;;;;;;14.60;12.40;;;;;22.76;58.79;101768.69;6171126;23;45391;-91
2022/05/16 05:18:36;;;;;;;;;9.80;9.80;;;;;22.79;58.96;101775.63;6157306;23;44659;-90
2022/05/16 05:21:02;;;;;;;;;12.00;10.80;;;;;22.46;59.08;101711.38;6180040;23;45273;-91
2022/05/16 05:23:27;;;;;;;;;12.25;11.00;;;;;23.18;58.80;101850.09;6155661;23;45274;-91
2022/05/16 05:25:53;;;;;;;;;14.25;13.25;;;;;22.52;59.52;101748.56;6129201;23;48141;-91
2022/05/16 05:28:18;;;;;;;;;13.25;10.75;;;;;23.20;59.62;101861.63;6130099;23;45275;-90
2022/05/16 05:30:44;;;;;;;;;12.50;12.50;;;;;23.17;59.05;101864.66;6128970;23;45361;-91
2022/05/16 05:33:09;;;;;;;;;12.75;12.50;;;;;22.71;59.83;101790.81;6129664;23;45494;-92
2022/05/16 05:35:35;;;;;;;;;10.50;10.50;;;;;22.48;59.39;101747.19;6128791;23;47108;-91
2022/05/16 05:38:00;;;;;;;;;14.50;13.25;;;;;23.00;59.57;101834.78;6129287;23;45127;-92
2022/05/16 08:26:50;;;;;;;;;7.20;5.60;;;;;22.94;58.75;101871.44;6206624;22;46679;-92
2022/05/16 08:29:17;;;;;;;;;8.80;5.00;;;;;23.19;59.00;101916.75;6169375;22;44679;-92
2022/05/16 08:31:50;;;;;;;;;6.00;6.00;;;;;22.63;59.22;101824.00;6163227;22;47631;-92
2022/05/16 08:34:41;;;;;;;;;5.00;5.00;;;;;23.43;59.17;101949.56;6169142;22;45466;-95
2022/05/16 08:40:03;;;;;;;;;7.20;5.80;;;;;22.94;58.91;101873.31;6170677;22;45488;-92
2022/05/16 08:42:47;;;;;;;;;5.40;4.40;;;;;23.49;59.43;101949.75;6162405;22;47131;-93
2022/05/16 08:45:33;;;;;;;;;8.60;5.40;;;;;23.50;59.12;101950.63;6186199;22;45513;-94
2022/05/16 08:48:18;;;;;;;;;4.00;4.00;;;;;22.89;58.89;101852.13;6185360;22;45389;-92
2022/05/16 08:51:21;;;;;;;;;5.60;5.20;;;;;23.55;58.72;101955.59;6161517;22;45351;-92
2022/05/16 08:54:11;;;;;;;;;4.80;4.80;;;;;23.28;58.47;101905.00;6178304;22;47226;-93
2022/05/16 08:56:38;;;;;;;;;6.40;5.00;;;;;22.89;58.43;101840.47;6186689;22;45433;-91
2022/05/16 08:59:28;;;;;;;;;5.00;5.00;;;;;23.61;58.70;101957.63;6160811;22;45241;-93
2022/05/16 09:02:14;;;;;;;;;5.80;5.40;;;;;22.76;58.65;101809.25;6148178;22;45663;-94
2022/05/16 09:08:31;;;;;;;;;5.40;4.60;;;;;23.16;58.54;101874.63;6183785;22;44722;-91
2022/05/16 09:11:36;;;;;;;;;6.60;6.40;;;;;23.17;58.74;101867.34;6165854;22;44773;-92
2022/05/16 09:14:43;;;;;;;;;6.00;4.80;;;;;23.29;58.55;101886.91;6187444;22;45414;-93
2022/05/16 09:17:26;;;;;;;;;10.20;6.40;;;;;22.89;58.92;101821.53;6174708;22;46663;-92
2022/05/16 09:20:25;;;;;;;;;7.40;5.60;;;;;23.00;58.77;101831.22;6141305;22;45272;-94
2022/05/16 09:23:28;;;;;;;;;5.60;5.60;;;;;23.82;58.54;101953.69;6153572;22;45318;-95
2022/05/16 09:32:14;;;;;;;;;7.00;5.40;;;;;23.88;57.73;101953.03;6183977;22;45650;-95
2022/05/16 09:47:26;;;;;;;;;6.00;6.00;;;;;23.58;57.33;101898.41;6177350;22;46857;-93
2022/05/16 10:11:53;;;;;;;;;8.40;7.20;;;;;23.81;56.61;101900.53;5976789;23;45498;-94
2022/05/16 10:15:16;;;;;;;;;;;;;;;;;;;;;
2022/05/16 10:21:47;;;;;;;;;7.20;7.20;;;;;23.77;56.66;101885.59;5891722;24;45468;-95
2022/05/16 10:24:20;;;;;;;;;9.20;8.20;;;;;23.94;56.50;101909.03;5838097;24;45482;-94
2022/05/16 10:26:55;;;;;;;;;9.40;8.00;;;;;23.90;56.52;101896.81;5846544;24;48129;-92
2022/05/16 10:29:24;;;;;;;;;8.60;7.00;;;;;24.37;56.63;101966.94;5868710;24;45361;-93
2022/05/16 10:34:52;;;;;;;;;7.00;5.20;;;;;24.43;56.48;101968.16;5872901;24;45562;-92
2022/05/16 10:37:18;;;;;;;;;8.00;6.20;;;;;24.08;56.62;101909.41;5845781;24;47113;-91
2022/05/16 10:39:49;;;;;;;;;8.50;8.50;;;;;23.75;56.65;101844.28;5868188;24;45465;-93
2022/05/16 10:42:27;;;;;;;;;10.00;5.80;;;;;24.02;56.29;101891.94;5846593;24;45424;-92
2022/05/16 10:44:56;;;;;;;;;10.40;8.60;;;;;23.91;56.52;101860.59;5845057;24;45758;-92
2022/05/16 10:47:30;;;;;;;;;11.80;9.60;;;;;24.09;56.57;101891.28;5883699;23;47733;-92
2022/05/16 10:50:04;;;;;;;;;8.80;8.20;;;;;23.80;56.88;101848.22;5906684;23;45461;-91
2022/05/16 10:53:06;;;;;;;;;8.20;7.40;;;;;24.31;56.87;101918.81;5965198;23;45564;-92
2022/05/16 10:55:58;;;;;;;;;9.80;9.80;;;;;24.44;56.63;101934.59;5992695;23;45126;-87
2022/05/16 10:58:43;;;;;;;;;6.00;6.00;;;;;24.66;56.36;101964.81;6162433;23;47177;-91
2022/05/16 11:01:15;;;;;;;;;6.80;6.80;;;;;24.19;56.67;101883.00;6167001;23;45455;-90
2022/05/16 11:04:07;;;;;;;;;6.60;5.80;;;;;24.10;56.12;101857.75;6157350;22;44795;-90
2022/05/16 11:06:48;;;;;;;;;8.00;7.60;;;;;24.64;56.65;101937.00;6185410;23;44783;-91
2022/05/16 11:09:17;;;;;;;;;10.60;8.60;;;;;24.59;56.49;101916.63;6165496;23;47122;-89
2022/05/16 11:12:38;;;;;;;;;11.40;10.00;;;;;24.45;56.84;101904.59;6129377;23;45405;-93
2022/05/16 11:15:12;;;;;;;;;9.00;8.20;;;;;24.01;56.70;101821.66;6162366;23;45357;-90
2022/05/16 11:18:19;;;;;;;;;9.00;9.00;;;;;24.81;56.43;101946.81;6129667;23;45484;-92
2022/05/16 11:20:57;;;;;;;;;11.20;7.20;;;;;24.48;56.16;101889.84;6181224;23;45797;-92
2022/05/16 11:23:37;;;;;;;;;9.20;9.00;;;;;24.90;56.46;101955.00;6134352;23;45359;-90
2022/05/16 11:26:14;;;;;;;;;9.00;7.80;;;;;24.31;56.06;101864.59;6155818;23;45276;-92
2022/05/16 11:29:20;;;;;;;;;8.60;7.40;;;;;24.71;56.13;101916.31;6131446;23;45449;-91
2022/05/16 11:31:52;;;;;;;;;7.40;7.00;;;;;24.96;55.61;101953.47;6153362;23;47188;-90
2022/05/16 11:34:29;;;;;;;;;8.00;6.20;;;;;24.59;55.17;101894.09;6151212;23;45537;-92
2022/05/16 11:37:08;;;;;;;;;8.80;8.00;;;;;24.60;55.64;101888.50;6130063;23;45506;-92
2022/05/16 11:39:59;;;;;;;;;11.00;9.40;;;;;24.71;55.56;101902.75;6105347;23;45849;-91
2022/05/16 11:42:33;;;;;;;;;12.00;10.00;;;;;25.04;55.90;101943.44;6161607;23;46966;-91
2022/05/16 11:45:05;;;;;;;;;10.00;9.00;;;;;24.92;55.97;101931.22;6154618;23;45578;-93
2022/05/16 11:48:05;;;;;;;;;8.40;7.40;;;;;24.57;55.88;101872.56;6182219;23;45475;-89
2022/05/16 11:50:42;;;;;;;;;11.00;9.80;;;;;25.13;55.23;101951.59;6156222;23;45216;-91
2022/05/16 11:53:15;;;;;;;;;7.00;6.00;;;;;25.15;55.03;101946.84;6154623;23;47122;-91
2022/05/16 12:01:32;;;;;;;;;6.00;6.00;;;;;24.88;54.10;101906.28;6140212;23;45403;-92
2022/05/16 12:04:22;;;;;;;;;6.40;6.00;;;;;25.20;53.87;101943.63;6153347;23;47100;-91
2022/05/16 12:06:52;;;;;;;;;8.20;6.20;;;;;25.22;53.19;101936.97;6135965;23;45258;-92
2022/05/16 12:09:19;;;;;;;;;5.40;5.40;;;;;25.25;53.07;101935.78;6128209;23;45517;-92
2022/05/16 12:11:58;;;;;;;;;6.00;6.00;;;;;25.26;53.40;101937.50;6152270;23;45477;-92
2022/05/16 12:14:26;;;;;;;;;6.00;6.00;;;;;25.28;52.47;101935.44;6125291;23;47835;-91
2022/05/16 12:17:10;;;;;;;;;8.60;6.00;;;;;25.30;53.19;101936.13;6151539;23;45202;-90
2022/05/16 12:19:41;;;;;;;;;5.80;5.80;;;;;24.73;52.75;101845.63;6149852;23;45238;-90
2022/05/16 12:22:22;;;;;;;;;8.00;6.00;;;;;25.02;52.16;101883.06;6125683;23;45516;-90
2022/05/16 12:24:50;;;;;;;;;6.00;6.00;;;;;25.37;52.00;101939.00;6103770;23;47749;-91
2022/05/16 12:27:16;;;;;;;;;4.00;4.00;;;;;25.38;51.71;101935.28;6147798;23;45416;-90
2022/05/16 12:29:56;;;;;;;;;5.25;4.75;;;;;25.40;52.20;101935.94;6149238;23;45297;-90
2022/05/16 12:32:22;;;;;;;;;4.60;4.60;;;;;25.43;51.68;101926.59;6104218;23;45447;-91
2022/05/16 12:34:49;;;;;;;;;5.40;4.00;;;;;24.80;51.75;101825.75;6125559;23;48119;-91
2022/05/16 12:37:16;;;;;;;;;7.00;4.60;;;;;24.85;51.73;101827.09;6128521;23;45694;-91
2022/05/16 12:39:57;;;;;;;;;5.00;5.00;;;;;25.50;51.81;101924.88;6102660;23;45363;-91
2022/05/16 12:42:47;;;;;;;;;5.40;5.00;;;;;25.39;51.63;101898.91;6150950;23;45461;-90
2022/05/16 12:45:40;;;;;;;;;3.20;3.20;;;;;25.54;51.94;101917.22;6151895;23;48422;-92
2022/05/16 12:48:42;;;;;;;;;4.60;4.60;;;;;25.16;51.76;101861.66;6147847;23;45337;-91
2022/05/16 12:51:28;;;;;;;;;7.20;6.00;;;;;25.57;50.84;101920.44;6154564;23;45512;-92
2022/05/16 12:54:06;;;;;;;;;5.00;5.00;;;;;25.59;50.33;101920.25;6157178;23;45423;-89
2022/05/16 12:56:46;;;;;;;;;6.60;5.40;;;;;25.61;50.84;101911.94;6146842;23;47300;-91
2022/05/16 12:59:23;;;;;;;;;7.60;7.00;;;;;25.19;50.71;101845.03;6177491;23;44654;-92
2022/05/16 13:02:09;;;;;;;;;4.80;4.40;;;;;25.31;51.07;101852.78;6177278;23;45060;-92
2022/05/16 13:05:06;;;;;;;;;6.40;5.40;;;;;25.67;50.99;101917.50;6106159;23;45345;-88
2022/05/16 13:08:05;;;;;;;;;7.60;6.00;;;;;25.17;50.90;101825.34;6149150;23;46672;-88
2022/05/16 13:10:46;;;;;;;;;6.20;5.00;;;;;25.64;50.75;101901.56;6116814;23;45458;-88
2022/05/16 13:13:11;;;;;;;;;6.40;5.60;;;;;25.75;50.21;101913.06;6117970;23;45805;-88
2022/05/16 13:16:03;;;;;;;;;7.25;6.00;;;;;25.74;51.04;101909.50;6118678;23;45531;-88
2022/05/16 13:18:31;;;;;;;;;6.00;6.00;;;;;25.67;50.42;101890.31;6118807;23;47293;-88
2022/05/16 13:21:00;;;;;;;;;6.80;6.00;;;;;25.28;50.33;101828.69;6119434;23;45313;-88
2022/05/16 13:23:25;;;;;;;;;8.20;6.00;;;;;25.16;50.44;101807.34;6119070;23;45343;-87
2022/05/16 13:31:38;;;;;;;;;8.20;7.20;;;;;25.73;50.06;101898.81;6119505;23;45303;-88
2022/05/16 13:34:04;;;;;;;;;5.80;5.80;;;;;25.45;49.96;101851.22;6119080;23;45482;-89
2022/05/16 13:36:30;;;;;;;;;6.50;6.50;;;;;25.47;50.11;101858.16;6092734;23;45297;-88
2022/05/16 13:39:04;;;;;;;;;6.25;6.00;;;;;25.41;50.20;101836.31;6118235;23;45303;-88
2022/05/16 13:41:30;;;;;;;;;7.40;6.00;;;;;25.36;50.12;101840.38;6093631;23;45281;-88
2022/05/16 13:43:55;;;;;;;;;7.80;6.40;;;;;25.44;49.82;101841.38;6117650;23;45316;-88
2022/05/16 13:46:21;;;;;;;;;7.50;7.00;;;;;25.53;50.22;101842.19;6132176;23;45518;-88
2022/05/16 13:49:04;;;;;;;;;5.75;5.75;;;;;25.30;50.31;101800.34;6155004;23;45968;-87
2022/05/16 13:51:30;;;;;;;;;6.60;5.00;;;;;25.44;50.02;101815.06;6155505;23;45397;-88
2022/05/16 13:53:56;;;;;;;;;6.50;6.00;;;;;25.50;49.93;101818.09;6130244;23;45304;-88
2022/05/16 13:56:41;;;;;;;;;8.60;6.60;;;;;25.98;50.65;101896.00;6180671;23;45355;-87
2022/05/16 13:59:07;;;;;;;;;7.40;5.60;;;;;25.81;50.34;101863.47;6153687;23;46684;-87
2022/05/16 14:01:32;;;;;;;;;5.50;5.00;;;;;25.69;49.71;101839.41;6106027;23;45445;-87
2022/05/16 14:04:04;;;;;;;;;6.00;4.75;;;;;25.62;50.10;101832.13;6158442;23;45455;-87
2022/05/16 14:06:35;;;;;;;;;8.20;6.00;;;;;25.79;49.84;101855.50;6133713;23;45283;-87
2022/05/16 14:09:12;;;;;;;;;5.00;3.80;;;;;25.84;50.09;101857.69;6130335;23;46111;-87
2022/05/16 14:11:37;;;;;;;;;5.00;5.00;;;;;25.69;49.21;101823.09;6138895;23;45338;-88
2022/05/16 14:14:03;;;;;;;;;4.75;4.75;;;;;25.53;48.52;101790.59;6130380;23;45365;-88
2022/05/16 14:16:35;;;;;;;;;6.25;6.25;;;;;25.68;49.13;101815.97;6133551;23;45299;-87
2022/05/16 14:19:06;;;;;;;;;6.00;6.00;;;;;26.04;48.64;101884.41;6105558;23;47208;-87
2022/05/16 14:21:47;;;;;;;;;3.00;3.00;;;;;26.17;49.64;101894.69;6124691;23;45253;-87
2022/05/16 14:24:14;;;;;;;;;5.00;4.40;;;;;25.86;48.71;101846.63;6151727;23;45301;-87
2022/05/16 14:26:40;;;;;;;;;6.40;5.00;;;;;26.22;48.58;101902.31;6125970;23;45322;-87
2022/05/16 14:29:28;;;;;;;;;5.50;3.00;;;;;26.23;49.17;101893.13;6151078;23;46437;-87
2022/05/16 14:32:00;;;;;;;;;4.00;4.00;;;;;26.24;49.22;101883.94;6149659;23;45374;-87
2022/05/16 14:34:35;;;;;;;;;4.00;4.00;;;;;25.96;48.94;101838.25;6149717;23;45316;-87
2022/05/16 14:37:17;;;;;;;;;5.00;3.80;;;;;25.90;49.24;101824.34;6148644;23;45415;-87
2022/05/16 14:39:53;;;;;;;;;4.40;4.40;;;;;26.04;48.68;101846.34;6149912;23;45499;-87
2022/05/16 14:42:24;;;;;;;;;4.00;3.60;;;;;26.29;48.69;101875.22;6149991;23;45297;-87
2022/05/16 14:45:04;;;;;;;;;2.40;2.40;;;;;26.29;48.92;101877.94;6150778;23;45348;-86
2022/05/16 14:47:51;;;;;;;;;2.40;1.80;;;;;26.23;48.01;101871.38;6152111;23;45524;-86
2022/05/16 14:50:19;;;;;;;;;3.00;3.00;;;;;26.21;47.50;101863.41;6148768;23;47365;-86
2022/05/16 14:52:58;;;;;;;;;6.00;4.00;;;;;26.31;47.46;101867.72;6165893;23;45372;-87
2022/05/16 14:55:32;;;;;;;;;7.00;3.00;;;;;25.85;46.47;101801.44;6166873;23;44687;-86
2022/05/16 14:58:00;;;;;;;;;4.00;4.00;;;;;25.74;46.02;101764.63;6150752;23;45305;-86
2022/05/16 15:05:53;;;;;;;;;4.40;3.60;;;;;26.35;46.78;101864.47;6149916;23;45296;-87
2022/05/16 15:08:23;;;;;;;;;3.00;3.00;;;;;25.83;46.31;101770.88;6155073;23;47208;-86
2022/05/16 15:10:49;;;;;;;;;3.00;3.00;;;;;26.02;46.01;101804.91;6129931;23;46306;-86
2022/05/16 15:13:14;;;;;;;;;4.00;3.00;;;;;26.23;46.08;101830.56;6154251;23;45465;-87
2022/05/16 15:15:40;;;;;;;;;4.00;2.00;;;;;25.91;46.62;101777.13;6154307;23;45536;-87
2022/05/16 15:18:06;;;;;;;;;3.25;3.25;;;;;26.16;46.67;101819.59;6130093;23;56790;-86
2022/05/16 15:20:31;;;;;;;;;3.00;2.50;;;;;26.41;46.19;101852.03;6129683;23;45871;-87
2022/05/16 15:22:56;;;;;;;;;2.25;2.25;;;;;26.52;47.04;101868.97;6155725;23;45405;-86
2022/05/16 15:25:22;;;;;;;;;2.25;2.25;;;;;26.37;46.40;101838.97;6156257;23;45369;-88
2022/05/16 15:27:47;;;;;;;;;2.25;1.75;;;;;26.25;47.29;101809.47;6155317;23;45329;-87
2022/05/16 15:30:13;;;;;;;;;2.75;2.00;;;;;25.89;47.06;101757.44;6132033;23;46209;-87
2022/05/16 15:32:39;;;;;;;;;4.00;2.00;;;;;26.11;46.90;101786.66;6183132;23;45312;-87
2022/05/16 15:35:05;;;;;;;;;3.00;3.00;;;;;26.10;45.84;101785.81;6180624;23;45349;-86
2022/05/16 15:37:31;;;;;;;;;3.25;3.00;;;;;26.17;45.18;101787.78;6155276;23;45290;-86
2022/05/16 15:39:57;;;;;;;;;0.80;0.80;;;;;26.18;46.14;101797.66;6182274;23;46118;-87
2022/05/16 15:42:24;;;;;;;;;2.00;2.00;;;;;26.24;45.89;101796.94;6130315;23;45269;-87
2022/05/16 15:44:51;;;;;;;;;2.40;2.00;;;;;26.31;45.49;101803.31;6130278;23;45313;-87
2022/05/16 15:47:25;;;;;;;;;1.60;1.60;;;;;26.07;46.38;101759.00;6155087;23;45488;-87
2022/05/16 15:49:50;;;;;;;;;1.20;0.80;;;;;26.42;46.59;101804.75;6130114;23;47972;-87
2022/05/16 15:52:16;;;;;;;;;4.25;2.75;;;;;26.64;46.51;101842.16;6180735;23;45374;-87
2022/05/16 15:54:42;;;;;;;;;2.00;2.00;;;;;26.66;46.54;101837.38;6179775;23;45331;-86
2022/05/16 15:57:07;;;;;;;;;2.00;2.00;;;;;26.22;46.33;101769.09;6149527;23;45548;-86
2022/05/16 15:59:33;;;;;;;;;2.00;2.00;;;;;26.63;45.95;101822.28;6172763;23;46034;-87